Time;durP1;ratioP1;P1;durP2;ratioP2;P2;SDS_P1;SDS_P2;PMS_P1;PMS_P2;Temp;Humidity;BMP_temperature;BMP_pressure;BME280_temperature;BME280_humidity;BME280_pressure;Samples;Min_cycle;Max_cycle;Signal;HPM_P1;HPM_P2
2021/09/03 00:02:26;;;;;;;17.00;14.17;;;14.10;1.00;15.10;101166.00;;;;4877529;29;20471;-80
2021/09/03 00:04:55;;;;;;;19.27;14.17;;;14.10;1.00;15.00;101166.00;;;;4876859;29;20491;-80
2021/09/03 00:07:25;;;;;;;18.77;14.27;;;14.10;1.00;14.80;101171.00;;;;4882202;29;20460;-81
2021/09/03 00:09:53;;;;;;;16.37;13.97;;;14.10;1.00;15.00;101162.00;;;;4877133;29;20467;-82
2021/09/03 00:12:22;;;;;;;17.27;13.93;;;14.00;1.00;14.90;101160.00;;;;4873653;29;21339;-83
2021/09/03 00:14:51;;;;;;;15.57;13.90;;;14.00;1.00;14.90;101167.00;;;;4876720;29;20452;-81
2021/09/03 00:17:19;;;;;;;15.33;13.73;;;13.90;1.00;14.90;101164.00;;;;4874869;29;20460;-80
2021/09/03 00:19:48;;;;;;;14.83;13.07;;;13.90;1.00;14.90;101169.00;;;;4878104;29;20466;-82
2021/09/03 00:22:17;;;;;;;13.93;12.53;;;14.00;1.00;14.90;101165.00;;;;4876520;29;20448;-80
2021/09/03 00:24:47;;;;;;;15.73;13.10;;;13.90;1.00;14.90;101116.00;;;;4886413;29;20484;-82
2021/09/03 00:27:15;;;;;;;16.50;12.63;;;13.90;1.00;14.90;101171.00;;;;4880431;29;20463;-81
2021/09/03 00:29:43;;;;;;;14.97;12.23;;;14.00;1.00;14.80;101175.00;;;;4882030;29;20527;-83
2021/09/03 00:32:12;;;;;;;14.63;13.00;;;14.00;1.00;14.80;101172.00;;;;4886414;29;20456;-81
2021/09/03 00:34:40;;;;;;;16.50;12.57;;;14.00;1.00;14.80;101164.00;;;;4883093;29;20491;-80
2021/09/03 00:37:08;;;;;;;14.30;12.80;;;13.90;1.00;14.80;101162.00;;;;4882680;29;21334;-80
2021/09/03 00:39:37;;;;;;;16.13;13.73;;;13.90;1.00;14.80;101135.00;;;;4895668;29;20478;-82
2021/09/03 00:42:11;;;;;;;14.80;13.30;;;13.90;1.00;14.70;101138.00;;;;4902125;29;20479;-82
2021/09/03 00:44:39;;;;;;;17.20;13.40;;;13.90;1.00;14.70;101147.00;;;;4893876;29;20491;-82
2021/09/03 00:47:08;;;;;;;14.10;12.60;;;13.90;1.00;14.70;101102.00;;;;4891158;29;20478;-82
2021/09/03 00:49:36;;;;;;;13.97;12.57;;;13.80;1.00;14.70;101148.00;;;;4904602;29;20438;-85
2021/09/03 00:52:08;;;;;;;13.67;12.10;;;13.80;1.00;14.70;101139.00;;;;4896196;29;20484;-85
2021/09/03 00:54:37;;;;;;;15.63;12.70;;;13.80;1.00;14.60;101143.00;;;;4896038;29;20456;-87
2021/09/03 00:57:08;;;;;;;14.20;12.70;;;13.90;1.00;14.60;101142.00;;;;4896452;29;20456;-83
2021/09/03 00:59:38;;;;;;;16.80;12.23;;;13.80;1.00;14.60;101141.00;;;;4890924;29;20498;-81
2021/09/03 01:02:07;;;;;;;14.57;13.03;;;13.70;1.00;14.60;101143.00;;;;4889843;29;20714;-81
2021/09/03 01:04:35;;;;;;;13.80;12.33;;;13.70;1.00;14.60;101143.00;;;;4893980;29;20479;-83
2021/09/03 01:07:04;;;;;;;15.77;12.20;;;13.60;1.00;14.50;101140.00;;;;4896727;29;20488;-82
2021/09/03 01:09:32;;;;;;;15.27;11.83;;;13.60;1.00;14.50;101150.00;;;;4898452;29;20464;-82
2021/09/03 01:12:01;;;;;;;16.47;13.10;;;13.60;1.00;14.50;101141.00;;;;4887936;29;20488;-83
2021/09/03 01:14:29;;;;;;;15.63;12.70;;;13.50;1.00;14.50;101141.00;;;;4886293;29;20440;-80
2021/09/03 01:16:59;;;;;;;14.53;13.07;;;13.50;1.00;14.40;101142.00;;;;4900446;29;20543;-84
2021/09/03 01:19:27;;;;;;;14.43;12.63;;;13.50;1.00;14.40;101140.00;;;;4894401;29;20475;-80
2021/09/03 01:21:57;;;;;;;14.20;12.50;;;13.50;1.00;14.40;101138.00;;;;4885557;29;20567;-81
2021/09/03 01:24:25;;;;;;;14.27;12.73;;;13.50;1.00;14.40;101123.00;;;;4867196;29;20481;-80
2021/09/03 01:26:53;;;;;;;14.37;12.23;;;13.50;1.00;14.30;101134.00;;;;4878724;29;20478;-80
2021/09/03 01:29:22;;;;;;;16.13;12.33;;;13.40;1.00;14.30;101115.00;;;;4877383;29;20942;-81
2021/09/03 01:31:50;;;;;;;14.77;13.27;;;13.40;1.00;14.30;101128.00;;;;4872502;29;20492;-81
2021/09/03 01:34:18;;;;;;;17.23;12.73;;;13.40;1.00;14.30;101125.00;;;;4876857;29;20467;-80
2021/09/03 01:36:47;;;;;;;13.70;12.20;;;13.50;1.00;14.30;101099.00;;;;4876004;29;20456;-81
2021/09/03 01:39:16;;;;;;;16.10;12.90;;;13.40;1.00;14.30;101117.00;;;;4877060;29;20458;-83
2021/09/03 01:41:45;;;;;;;14.37;12.83;;;13.50;1.00;14.30;101104.00;;;;4874877;29;20490;-80
2021/09/03 01:44:13;;;;;;;17.80;12.93;;;13.40;1.00;14.30;101102.00;;;;4875441;29;20970;-80
2021/09/03 01:46:42;;;;;;;16.40;12.60;;;13.40;1.00;14.20;101118.00;;;;4876537;29;20981;-80
2021/09/03 01:49:10;;;;;;;15.23;12.77;;;13.40;1.00;14.20;101117.00;;;;4873637;29;20467;-83
2021/09/03 01:51:38;;;;;;;20.10;13.07;;;13.50;1.00;14.20;101130.00;;;;4875705;29;20888;-82
2021/09/03 01:54:07;;;;;;;15.70;13.03;;;13.40;1.00;14.20;101062.00;;;;4876534;29;20475;-80
2021/09/03 01:56:36;;;;;;;14.67;13.10;;;13.40;1.00;14.10;101089.00;;;;4877496;29;20464;-83
2021/09/03 01:59:05;;;;;;;15.00;12.73;;;13.30;1.00;14.20;101121.00;;;;4879144;29;20463;-82
2021/09/03 02:01:33;;;;;;;15.03;13.10;;;13.40;1.00;14.20;101111.00;;;;4888352;29;20991;-82
2021/09/03 02:04:02;;;;;;;16.20;12.07;;;13.40;1.00;14.20;101091.00;;;;4874449;29;20459;-82
2021/09/03 02:06:30;;;;;;;14.57;12.20;;;13.40;1.00;14.10;101125.00;;;;4874925;29;20499;-82
2021/09/03 02:08:58;;;;;;;13.83;12.03;;;13.40;1.00;14.10;101090.00;;;;4872957;29;20481;-81
2021/09/03 02:11:27;;;;;;;14.60;13.10;;;13.30;1.00;14.10;101113.00;;;;4863918;29;20527;-81
2021/09/03 02:13:56;;;;;;;17.40;13.70;;;13.30;1.00;14.10;101127.00;;;;4868255;29;20456;-80
2021/09/03 02:16:25;;;;;;;14.07;12.33;;;13.30;1.00;14.10;101126.00;;;;4876061;29;20468;-81
2021/09/03 02:18:53;;;;;;;15.90;12.50;;;13.20;1.00;14.10;101101.00;;;;4868644;29;20456;-81
2021/09/03 02:21:22;;;;;;;20.47;13.60;;;13.30;1.00;14.00;101120.00;;;;4864460;29;20491;-81
2021/09/03 02:23:50;;;;;;;17.47;12.97;;;13.20;1.00;14.00;101085.00;;;;4864560;29;20839;-84
2021/09/03 02:26:18;;;;;;;17.30;13.77;;;13.20;1.00;14.00;101085.00;;;;4862026;29;20477;-81
2021/09/03 02:28:47;;;;;;;15.23;13.57;;;13.20;1.00;13.90;101118.00;;;;4873216;29;20464;-82
2021/09/03 02:31:16;;;;;;;14.87;13.20;;;13.10;1.00;14.00;101117.00;;;;4864960;29;21065;-81
2021/09/03 02:33:45;;;;;;;15.30;13.53;;;13.10;1.00;13.90;101118.00;;;;4871919;29;20978;-83
2021/09/03 02:36:13;;;;;;;14.43;13.03;;;13.10;1.00;13.90;101124.00;;;;4863770;29;20467;-83
2021/09/03 02:38:43;;;;;;;16.50;14.53;;;13.00;1.00;13.90;101102.00;;;;4887816;29;20527;-81
2021/09/03 02:41:11;;;;;;;15.37;13.47;;;13.00;1.00;13.90;101123.00;;;;4873737;29;20483;-84
2021/09/03 02:43:40;;;;;;;15.03;13.27;;;13.10;1.00;13.90;101100.00;;;;4881357;29;20459;-84
2021/09/03 02:46:08;;;;;;;17.80;13.10;;;13.00;1.00;13.90;101121.00;;;;4871166;29;20878;-81
2021/09/03 02:48:38;;;;;;;17.33;13.83;;;13.00;1.00;13.90;101119.00;;;;4871539;29;20464;-80
2021/09/03 02:51:06;;;;;;;15.83;14.10;;;13.00;1.00;13.90;101119.00;;;;4873320;29;20476;-80
2021/09/03 02:53:35;;;;;;;18.57;15.30;;;13.10;1.00;13.90;101081.00;;;;4871892;29;20460;-81
2021/09/03 02:56:05;;;;;;;19.47;14.70;;;13.00;1.00;13.80;101117.00;;;;4875173;29;20524;-80
2021/09/03 02:58:33;;;;;;;16.20;13.97;;;13.10;1.00;13.80;101125.00;;;;4871811;29;20488;-79
2021/09/03 03:01:01;;;;;;;19.17;14.03;;;13.10;1.00;13.80;101114.00;;;;4883944;29;20480;-80
2021/09/03 03:03:30;;;;;;;18.77;15.03;;;13.00;1.00;13.80;101110.00;;;;4878292;29;20473;-84
2021/09/03 03:06:00;;;;;;;14.87;13.33;;;13.10;1.00;13.80;101110.00;;;;4875678;29;20476;-82
2021/09/03 03:08:28;;;;;;;16.90;14.77;;;13.10;1.00;13.80;101105.00;;;;4880804;29;20451;-83
2021/09/03 03:10:56;;;;;;;17.07;14.40;;;13.00;1.00;13.80;101091.00;;;;4888250;29;20492;-80
2021/09/03 03:13:26;;;;;;;15.27;13.80;;;13.00;1.00;13.80;101108.00;;;;4889138;29;20457;-85
2021/09/03 03:15:54;;;;;;;14.80;12.93;;;13.00;1.00;13.70;101085.00;;;;4903028;29;20468;-83
2021/09/03 03:18:23;;;;;;;16.13;14.50;;;12.90;1.00;13.70;101056.00;;;;4882392;29;20520;-81
2021/09/03 03:20:52;;;;;;;22.13;15.00;;;12.90;1.00;13.70;101093.00;;;;4881760;29;21032;-80
2021/09/03 03:23:22;;;;;;;18.70;14.50;;;12.90;1.00;13.70;101088.00;;;;4877855;29;20467;-80
2021/09/03 03:25:50;;;;;;;15.47;13.70;;;12.90;1.00;13.70;101094.00;;;;4875358;29;20491;-82
2021/09/03 03:28:18;;;;;;;15.57;13.90;;;12.90;1.00;13.70;101077.00;;;;4875591;29;20459;-79
2021/09/03 03:30:47;;;;;;;17.87;13.83;;;12.90;1.00;13.60;101092.00;;;;4877355;29;20483;-80
2021/09/03 03:33:15;;;;;;;17.53;15.00;;;12.90;1.00;13.60;101095.00;;;;4877659;29;20459;-82
2021/09/03 03:35:43;;;;;;;19.03;13.57;;;12.90;1.00;13.60;101088.00;;;;4882651;29;20456;-82
2021/09/03 03:38:12;;;;;;;18.33;14.87;;;12.80;1.00;13.60;101046.00;;;;4876097;29;20459;-81
2021/09/03 03:40:41;;;;;;;18.37;14.47;;;12.80;1.00;13.60;101074.00;;;;4884866;29;20472;-84
2021/09/03 03:43:10;;;;;;;17.03;13.93;;;12.80;1.00;13.60;101093.00;;;;4882183;29;20466;-80
2021/09/03 03:45:38;;;;;;;21.20;16.30;;;12.80;1.00;13.50;101095.00;;;;4874640;29;20480;-80
2021/09/03 03:48:07;;;;;;;20.77;16.30;;;12.80;1.00;13.50;101070.00;;;;4875883;29;20456;-83
2021/09/03 03:50:35;;;;;;;21.43;17.63;;;12.80;1.00;13.50;101080.00;;;;4874810;29;20834;-80
2021/09/03 03:53:03;;;;;;;21.50;16.67;;;12.80;1.00;13.50;101048.00;;;;4886316;29;21192;-82
2021/09/03 03:55:32;;;;;;;19.70;16.17;;;12.80;1.00;13.50;101068.00;;;;4874678;29;20460;-81
2021/09/03 03:58:01;;;;;;;20.13;16.23;;;12.80;1.00;13.50;101082.00;;;;4872076;29;20460;-81
2021/09/03 04:00:30;;;;;;;24.23;15.67;;;12.90;1.00;13.50;101070.00;;;;4876168;29;20487;-80
2021/09/03 04:02:58;;;;;;;20.70;15.70;;;12.70;1.00;13.50;101064.00;;;;4876066;29;20934;-83
2021/09/03 04:05:27;;;;;;;20.73;16.67;;;12.70;1.00;13.50;101074.00;;;;4875859;29;20478;-79
2021/09/03 04:07:55;;;;;;;21.90;17.23;;;12.70;1.00;13.50;101094.00;;;;4886822;29;20460;-83
2021/09/03 04:10:23;;;;;;;19.37;16.33;;;12.70;1.00;13.50;101038.00;;;;4889057;29;20661;-79
2021/09/03 04:12:52;;;;;;;18.57;16.13;;;12.70;1.00;13.50;101078.00;;;;4884273;29;20460;-80
2021/09/03 04:15:22;;;;;;;21.40;18.13;;;12.70;1.00;13.50;101076.00;;;;4868497;29;20467;-78
2021/09/03 04:17:50;;;;;;;20.87;17.43;;;12.80;1.00;13.50;101076.00;;;;4877512;29;20456;-80
2021/09/03 04:20:19;;;;;;;19.40;17.17;;;12.70;1.00;13.50;101071.00;;;;4877423;29;20487;-79
2021/09/03 04:22:47;;;;;;;21.40;17.37;;;12.80;1.00;13.50;101075.00;;;;4873703;29;20465;-79
2021/09/03 04:25:16;;;;;;;20.77;17.30;;;12.70;1.00;13.50;101062.00;;;;4886184;29;20471;-80
2021/09/03 04:27:45;;;;;;;20.80;16.57;;;12.70;1.00;13.50;101074.00;;;;4897667;29;20484;-81
2021/09/03 04:30:14;;;;;;;20.40;17.43;;;12.70;1.00;13.40;101062.00;;;;4891388;29;20473;-82
2021/09/03 04:32:44;;;;;;;22.40;18.00;;;12.70;1.00;13.40;101074.00;;;;4888052;29;20456;-79
2021/09/03 04:35:12;;;;;;;20.23;16.70;;;12.70;1.00;13.40;101033.00;;;;4898734;29;20432;-82
2021/09/03 04:37:44;;;;;;;20.27;16.23;;;12.70;1.00;13.40;101076.00;;;;4889205;29;20471;-81
2021/09/03 04:40:14;;;;;;;21.80;17.03;;;12.70;1.00;13.40;101084.00;;;;4888440;29;20480;-81
2021/09/03 04:42:43;;;;;;;21.33;17.50;;;12.70;1.00;13.40;101067.00;;;;4890626;29;20559;-80
2021/09/03 04:45:13;;;;;;;23.07;17.37;;;12.70;1.00;13.40;101088.00;;;;4887875;29;20479;-83
2021/09/03 04:47:43;;;;;;;23.30;17.33;;;12.70;1.00;13.40;101075.00;;;;4881733;29;20480;-80
2021/09/03 04:50:13;;;;;;;22.10;16.67;;;12.70;1.00;13.40;101067.00;;;;4881052;29;20499;-80
2021/09/03 04:52:43;;;;;;;19.87;17.03;;;12.60;1.00;13.40;101064.00;;;;4885884;29;20512;-84
2021/09/03 04:55:12;;;;;;;20.23;18.07;;;12.60;1.00;13.40;101047.00;;;;4884741;29;21300;-82
2021/09/03 04:57:52;;;;;;;19.43;17.00;;;12.60;1.00;13.40;101085.00;;;;4898823;29;20539;-84
2021/09/03 05:00:22;;;;;;;22.20;16.63;;;12.70;1.00;13.50;101083.00;;;;4887648;29;20500;-82
2021/09/03 05:02:52;;;;;;;20.30;17.53;;;12.80;1.00;13.50;101062.00;;;;4884149;29;20524;-80
2021/09/03 05:05:20;;;;;;;23.43;18.30;;;12.70;1.00;13.50;101084.00;;;;4872598;29;20547;-80
2021/09/03 05:07:49;;;;;;;19.57;16.13;;;12.70;1.00;13.60;101086.00;;;;4876168;29;20540;-80
2021/09/03 05:10:17;;;;;;;22.23;18.03;;;12.80;1.00;13.60;101024.00;;;;4876757;29;20490;-84
2021/09/03 05:12:45;;;;;;;22.60;17.53;;;12.80;1.00;13.70;101077.00;;;;4877709;29;20482;-80
2021/09/03 05:15:16;;;;;;;23.07;17.57;;;12.90;1.00;13.80;101074.00;;;;4872902;29;20469;-81
2021/09/03 05:17:48;;;;;;;23.10;18.20;;;12.90;1.00;13.80;101076.00;;;;4877022;29;20569;-80
2021/09/03 05:20:18;;;;;;;19.23;16.40;;;13.00;1.00;13.90;101076.00;;;;4874499;29;20495;-80
2021/09/03 05:22:47;;;;;;;17.43;15.63;;;13.10;1.00;14.00;101073.00;;;;4883400;29;20460;-81
2021/09/03 05:25:15;;;;;;;17.87;16.00;;;13.10;1.00;14.00;101080.00;;;;4872668;29;20460;-81
2021/09/03 05:27:44;;;;;;;20.10;16.50;;;13.20;1.00;14.10;101088.00;;;;4868898;29;20491;-83
2021/09/03 05:30:14;;;;;;;19.93;15.93;;;13.20;1.00;14.20;101074.00;;;;4866271;29;21017;-80
2021/09/03 05:32:42;;;;;;;19.20;16.30;;;13.30;1.00;14.20;101080.00;;;;4876493;29;20464;-82
2021/09/03 05:35:12;;;;;;;16.67;14.90;;;13.30;1.00;14.30;101087.00;;;;4886859;29;20462;-82
2021/09/03 05:37:42;;;;;;;17.77;15.97;;;13.40;1.00;14.40;101088.00;;;;4873552;29;20468;-82
2021/09/03 05:40:12;;;;;;;20.33;15.33;;;13.40;1.00;14.50;101087.00;;;;4878990;29;20480;-81
2021/09/03 05:42:40;;;;;;;16.60;14.80;;;13.50;1.00;14.50;101084.00;;;;4877540;29;20521;-81
2021/09/03 05:45:09;;;;;;;17.23;15.47;;;13.60;1.00;14.60;101076.00;;;;4877586;29;20495;-86
2021/09/03 05:47:42;;;;;;;17.07;14.47;;;13.70;1.00;14.70;101073.00;;;;4890912;29;20499;-80
2021/09/03 05:50:13;;;;;;;18.07;15.30;;;13.80;1.00;14.80;101088.00;;;;4893285;29;20490;-81
2021/09/03 05:52:43;;;;;;;20.60;15.57;;;13.80;1.00;14.80;101077.00;;;;4894441;29;20440;-81
2021/09/03 05:55:12;;;;;;;20.90;16.00;;;13.90;1.00;14.90;101080.00;;;;4892672;29;20527;-82
2021/09/03 05:57:41;;;;;;;20.00;14.70;;;14.00;1.00;15.00;101087.00;;;;4882968;29;20467;-80
2021/09/03 06:00:11;;;;;;;20.07;15.00;;;14.00;1.00;15.10;101086.00;;;;4877913;29;20494;-79
2021/09/03 06:02:40;;;;;;;19.10;16.00;;;14.10;1.00;15.10;101076.00;;;;4877081;29;20479;-82
2021/09/03 06:05:10;;;;;;;17.83;14.93;;;14.20;1.00;15.20;101084.00;;;;4873874;29;20488;-81
2021/09/03 06:07:38;;;;;;;16.27;14.37;;;14.20;1.00;15.30;101050.00;;;;4874861;29;20476;-84
2021/09/03 06:10:10;;;;;;;16.23;14.53;;;14.30;1.00;15.30;101046.00;;;;4876299;29;20567;-80
2021/09/03 06:12:39;;;;;;;16.40;13.90;;;14.40;1.00;15.40;101072.00;;;;4880119;29;20460;-84
2021/09/03 06:15:10;;;;;;;16.77;15.03;;;14.50;1.00;15.50;101067.00;;;;4891186;29;20483;-84
2021/09/03 06:17:39;;;;;;;17.77;14.67;;;14.70;1.00;15.60;101080.00;;;;4893451;29;20494;-83
2021/09/03 06:20:10;;;;;;;14.80;13.30;;;14.80;1.00;15.60;101078.00;;;;4891249;29;20490;-80
2021/09/03 06:22:38;;;;;;;17.27;15.43;;;14.90;1.00;15.70;101085.00;;;;4895914;29;20542;-81
2021/09/03 06:25:10;;;;;;;16.83;14.97;;;15.10;1.00;15.80;101084.00;;;;4895510;29;20440;-81
2021/09/03 06:27:39;;;;;;;17.10;13.60;;;15.00;1.00;15.90;101067.00;;;;4897137;29;20482;-80
2021/09/03 06:30:09;;;;;;;16.50;14.07;;;15.10;1.00;16.00;101076.00;;;;4884192;29;20554;-82
2021/09/03 06:32:41;;;;;;;17.30;13.87;;;15.20;1.00;16.00;101076.00;;;;4882731;29;20458;-80
2021/09/03 06:35:10;;;;;;;16.00;13.40;;;15.30;1.00;16.10;101059.00;;;;4880399;29;20448;-82
2021/09/03 06:37:39;;;;;;;16.33;14.40;;;15.40;1.00;16.20;101075.00;;;;4878827;29;20464;-80
2021/09/03 06:40:09;;;;;;;15.33;12.07;;;15.40;1.00;16.20;101047.00;;;;4878614;29;20488;-82
2021/09/03 06:42:37;;;;;;;14.43;12.93;;;15.60;1.00;16.30;101064.00;;;;4876777;29;20571;-81
2021/09/03 06:45:09;;;;;;;15.53;13.80;;;15.60;1.00;16.30;101069.00;;;;4877257;29;20943;-81
2021/09/03 06:47:37;;;;;;;21.53;14.37;;;15.70;1.00;16.40;101067.00;;;;4877649;29;20559;-79
2021/09/03 06:50:07;;;;;;;14.33;12.93;;;15.80;1.00;16.60;101079.00;;;;4866519;29;20474;-82
2021/09/03 06:52:35;;;;;;;15.57;12.57;;;15.90;1.00;16.60;101047.00;;;;4866204;29;20461;-80
2021/09/03 06:55:06;;;;;;;22.27;12.60;;;16.00;1.00;16.70;101072.00;;;;4877119;29;20462;-81
2021/09/03 06:57:38;;;;;;;15.93;13.47;;;16.10;1.00;16.80;101080.00;;;;4874264;29;20463;-80
2021/09/03 07:00:09;;;;;;;19.73;14.07;;;16.20;1.00;16.80;101063.00;;;;4872840;29;20877;-81
2021/09/03 07:02:37;;;;;;;16.20;13.03;;;16.20;1.00;16.80;101067.00;;;;4882090;29;20464;-81
2021/09/03 07:05:07;;;;;;;14.00;12.50;;;16.20;1.00;16.90;101064.00;;;;4872687;29;20496;-84
2021/09/03 07:07:35;;;;;;;16.07;13.70;;;16.30;1.00;17.00;101066.00;;;;4879912;29;20476;-82
2021/09/03 07:10:04;;;;;;;15.00;12.43;;;16.50;1.00;17.00;101060.00;;;;4880800;29;20463;-80
2021/09/03 07:12:32;;;;;;;15.43;12.43;;;16.50;1.00;17.10;101071.00;;;;4890677;29;20468;-82
2021/09/03 07:15:02;;;;;;;17.93;12.90;;;16.60;1.00;17.20;101071.00;;;;4880233;29;20548;-84
2021/09/03 07:17:31;;;;;;;14.33;12.70;;;16.60;1.00;17.30;101040.00;;;;4880120;29;20849;-82
2021/09/03 07:20:00;;;;;;;13.13;11.57;;;16.80;1.00;17.30;101032.00;;;;4877441;29;20559;-84
2021/09/03 07:22:29;;;;;;;15.50;11.70;;;16.80;1.00;17.40;101063.00;;;;4881802;29;20475;-83
2021/09/03 07:24:57;;;;;;;13.93;12.20;;;16.90;1.00;17.50;101069.00;;;;4871258;29;20837;-81
2021/09/03 07:27:25;;;;;;;12.53;11.23;;;17.10;1.00;17.50;101054.00;;;;4880628;29;20487;-81
2021/09/03 07:29:54;;;;;;;13.03;11.27;;;17.10;1.00;17.60;101081.00;;;;4885839;29;20448;-81
2021/09/03 07:32:23;;;;;;;17.33;13.57;;;17.30;1.00;17.70;101070.00;;;;4879409;29;20517;-83
2021/09/03 07:34:52;;;;;;;14.80;10.87;;;17.30;1.00;17.80;101085.00;;;;4878458;29;20546;-83
2021/09/03 07:37:20;;;;;;;13.50;12.10;;;17.40;1.00;17.90;101079.00;;;;4893878;29;20462;-83
2021/09/03 07:39:48;;;;;;;12.63;11.10;;;17.50;1.00;18.00;101084.00;;;;4881115;29;20464;-82
2021/09/03 07:42:17;;;;;;;11.60;10.43;;;17.60;1.00;18.00;101081.00;;;;4892754;29;20450;-82
2021/09/03 07:44:45;;;;;;;12.27;10.97;;;17.70;1.00;18.10;101085.00;;;;4895875;29;20523;-83
2021/09/03 07:47:14;;;;;;;12.40;10.47;;;17.70;1.00;18.20;101087.00;;;;4898049;29;20511;-84
2021/09/03 07:49:43;;;;;;;11.20;10.10;;;17.90;1.00;18.20;101086.00;;;;4895546;29;20535;-83
2021/09/03 07:52:12;;;;;;;12.33;11.03;;;17.80;1.00;18.30;101082.00;;;;4885395;29;20488;-82
2021/09/03 07:54:40;;;;;;;13.27;10.23;;;17.90;1.00;18.30;101074.00;;;;4886578;29;20472;-80
2021/09/03 07:57:08;;;;;;;11.80;9.73;;;18.00;1.00;18.40;101071.00;;;;4883230;29;20535;-82
2021/09/03 07:59:37;;;;;;;11.83;10.63;;;18.00;1.00;18.50;101061.00;;;;4890336;29;20533;-83
2021/09/03 08:02:05;;;;;;;12.73;11.33;;;18.10;1.00;18.60;101057.00;;;;4888454;29;20486;-81
2021/09/03 08:04:34;;;;;;;11.33;10.13;;;18.20;1.00;18.60;101071.00;;;;4895465;29;20464;-78
2021/09/03 08:07:04;;;;;;;12.63;10.00;;;18.30;1.00;18.70;101047.00;;;;4895002;29;20468;-81
2021/09/03 08:09:33;;;;;;;13.37;11.30;;;18.40;1.00;18.80;101067.00;;;;4885041;29;20503;-80
2021/09/03 08:12:01;;;;;;;13.90;11.03;;;18.50;1.00;18.80;101068.00;;;;4887527;29;20472;-82
2021/09/03 08:14:30;;;;;;;16.03;13.50;;;18.60;1.00;18.90;101076.00;;;;4884917;29;20527;-81
2021/09/03 08:16:58;;;;;;;16.33;11.47;;;18.60;1.00;19.00;101078.00;;;;4897755;29;20934;-83
2021/09/03 08:19:27;;;;;;;10.67;9.57;;;18.70;1.00;19.10;101074.00;;;;4888155;29;20511;-81
2021/09/03 08:21:55;;;;;;;13.00;10.10;;;18.90;1.00;19.10;101013.00;;;;4894053;29;20526;-80
2021/09/03 08:24:25;;;;;;;13.20;10.97;;;19.10;1.00;19.30;101071.00;;;;4896012;29;20515;-80
2021/09/03 08:26:53;;;;;;;14.20;10.00;;;19.00;1.00;19.30;101040.00;;;;4893675;29;20652;-82
2021/09/03 08:29:22;;;;;;;10.70;9.60;;;19.10;1.00;19.40;101069.00;;;;4891502;29;20476;-80
2021/09/03 08:31:50;;;;;;;12.63;10.60;;;19.30;1.00;19.40;101069.00;;;;4892887;29;20491;-83
2021/09/03 08:34:18;;;;;;;11.37;9.63;;;19.40;1.00;19.40;101072.00;;;;4883648;29;20452;-83
2021/09/03 08:36:48;;;;;;;11.20;10.10;;;19.40;1.00;19.50;101002.00;;;;4880282;29;20487;-82
2021/09/03 08:39:16;;;;;;;11.10;9.43;;;19.50;1.00;19.50;101079.00;;;;4880606;29;20467;-81
2021/09/03 08:41:46;;;;;;;12.10;10.60;;;19.50;1.00;19.60;101060.00;;;;4881864;29;20480;-81
2021/09/03 08:44:15;;;;;;;12.70;11.33;;;19.50;1.00;19.70;101060.00;;;;4878320;29;20478;-82
2021/09/03 08:46:45;;;;;;;14.10;10.17;;;19.70;1.00;19.80;101070.00;;;;4879559;29;20491;-81
2021/09/03 08:49:14;;;;;;;12.20;8.80;;;19.80;1.00;19.90;101076.00;;;;4879204;29;20552;-81
2021/09/03 08:51:43;;;;;;;11.30;9.37;;;20.00;1.00;20.00;101067.00;;;;4881967;29;21160;-81
2021/09/03 08:54:12;;;;;;;10.83;9.00;;;20.10;1.00;20.00;101055.00;;;;4884526;29;20488;-81
2021/09/03 08:56:40;;;;;;;10.43;8.90;;;20.20;1.00;20.10;101062.00;;;;4882300;29;20496;-82
2021/09/03 08:59:10;;;;;;;12.27;10.43;;;20.30;1.00;20.20;101057.00;;;;4879968;29;20531;-82
2021/09/03 09:01:38;;;;;;;11.57;9.30;;;20.40;1.00;20.30;101071.00;;;;4881909;29;20613;-81
2021/09/03 09:04:15;;;;;;;11.30;8.13;;;20.50;1.00;20.30;101070.00;;;;4885402;29;20483;-83
2021/09/03 09:07:02;;;;;;;10.53;9.53;;;20.60;1.00;20.50;101070.00;;;;4886047;29;20540;-82
2021/09/03 09:09:31;;;;;;;13.07;9.50;;;20.60;1.00;20.50;101071.00;;;;4899039;29;20498;-82
2021/09/03 09:12:04;;;;;;;11.67;10.50;;;20.80;1.00;20.60;101024.00;;;;4890979;29;20527;-80
2021/09/03 09:15:01;;;;;;;11.13;9.23;;;20.90;1.00;20.60;101079.00;;;;4889681;29;20539;-82
2021/09/03 09:17:32;;;;;;;11.10;9.30;;;20.90;1.00;20.70;101070.00;;;;4871013;29;20551;-83
2021/09/03 09:20:02;;;;;;;13.50;11.10;;;21.00;1.00;20.70;101066.00;;;;4880667;29;20476;-80
2021/09/03 09:22:52;;;;;;;10.90;9.90;;;21.00;1.00;20.80;101065.00;;;;4881082;29;20669;-82
2021/09/03 09:25:24;;;;;;;10.93;9.83;;;21.10;1.00;20.80;101064.00;;;;4885563;29;20519;-82
2021/09/03 09:27:53;;;;;;;12.13;10.80;;;21.10;1.00;20.70;101063.00;;;;4881096;29;21214;-82
2021/09/03 09:30:25;;;;;;;15.43;9.47;;;21.10;1.00;20.90;101056.00;;;;4879290;29;20505;-81
2021/09/03 09:33:16;;;;;;;11.93;9.77;;;21.20;1.00;21.00;101051.00;;;;4883409;29;20475;-82
2021/09/03 09:35:48;;;;;;;10.43;9.00;;;21.30;1.00;21.10;101047.00;;;;4869748;29;20547;-82
2021/09/03 09:38:20;;;;;;;10.00;8.17;;;21.50;1.00;21.10;101007.00;;;;4882494;29;21634;-82
2021/09/03 09:40:54;;;;;;;9.90;8.47;;;21.60;1.00;21.20;101038.00;;;;4885101;29;20502;-80
2021/09/03 09:43:33;;;;;;;9.40;8.50;;;21.70;1.00;21.20;101037.00;;;;4892235;29;20543;-81
2021/09/03 09:46:24;;;;;;;7.80;6.73;;;21.80;1.00;21.30;101033.00;;;;4884126;29;20484;-81
2021/09/03 09:49:11;;;;;;;8.80;7.67;;;21.80;1.00;21.30;101028.00;;;;4885913;29;20490;-81
2021/09/03 09:51:44;;;;;;;12.17;7.60;;;21.80;1.00;21.40;101018.00;;;;4871618;29;20487;-80
2021/09/03 09:54:16;;;;;;;9.17;7.97;;;21.90;1.00;21.50;101008.00;;;;4875228;29;20479;-81
2021/09/03 09:56:47;;;;;;;8.40;7.60;;;22.00;1.00;21.50;101021.00;;;;4875146;29;20466;-81
2021/09/03 09:59:17;;;;;;;7.70;6.90;;;22.10;1.00;21.40;101022.00;;;;4874841;29;20964;-83
2021/09/03 10:01:50;;;;;;;8.03;7.30;;;22.10;1.00;21.70;101030.00;;;;4875882;29;20840;-80
2021/09/03 10:04:21;;;;;;;9.47;7.37;;;22.10;1.00;21.80;100965.00;;;;4879973;29;20475;-81
2021/09/03 10:06:53;;;;;;;9.70;7.47;;;22.10;1.00;21.80;101012.00;;;;4877867;29;20491;-82
2021/09/03 10:09:23;;;;;;;8.00;6.57;;;22.20;1.00;21.90;101017.00;;;;4879838;29;20508;-79
2021/09/03 10:11:54;;;;;;;7.90;6.67;;;22.30;1.00;21.90;100992.00;;;;4887892;29;20514;-81
2021/09/03 10:14:26;;;;;;;7.40;6.60;;;22.50;1.00;22.00;101001.00;;;;4880069;29;20468;-80
2021/09/03 10:16:58;;;;;;;9.33;6.37;;;22.70;1.00;21.90;101008.00;;;;4877694;29;20528;-81
2021/09/03 10:19:30;;;;;;;8.00;6.97;;;22.80;1.00;22.10;101006.00;;;;4873590;29;20536;-82
2021/09/03 10:22:04;;;;;;;6.90;6.30;;;22.80;1.00;22.20;101010.00;;;;4882181;29;20522;-81
2021/09/03 10:24:34;;;;;;;7.03;6.33;;;22.90;1.00;22.20;101008.00;;;;4885079;29;20447;-82
2021/09/03 10:27:06;;;;;;;9.10;7.20;;;22.90;1.00;22.30;101009.00;;;;4877803;29;20459;-83
2021/09/03 10:29:37;;;;;;;8.20;6.00;;;23.00;1.00;22.40;101004.00;;;;4889591;29;20484;-82
2021/09/03 10:32:23;;;;;;;8.10;6.60;;;23.10;1.00;22.50;101000.00;;;;4886069;29;20492;-82
2021/09/03 10:35:03;;;;;;;11.17;6.23;;;23.20;1.00;22.50;100995.00;;;;4894613;29;20460;-81
2021/09/03 10:37:38;;;;;;;7.93;6.13;;;23.20;1.00;22.60;100985.00;;;;4895780;29;20473;-82
2021/09/03 10:40:24;;;;;;;6.57;5.97;;;23.20;1.00;22.60;100979.00;;;;4897727;29;20502;-82
2021/09/03 10:42:59;;;;;;;7.43;5.93;;;23.30;1.00;22.60;100983.00;;;;4904725;29;20475;-79
2021/09/03 10:45:39;;;;;;;9.73;7.50;;;23.50;1.00;22.80;100972.00;;;;4886137;29;20540;-82
2021/09/03 10:48:12;;;;;;;7.10;6.50;;;23.50;1.00;22.90;100986.00;;;;4884601;29;20555;-83
2021/09/03 10:50:55;;;;;;;9.50;7.50;;;23.50;1.00;23.00;100987.00;;;;4880805;29;20502;-82
2021/09/03 10:53:30;;;;;;;10.07;9.17;;;23.60;1.00;23.00;100980.00;;;;4878537;29;21823;-82
2021/09/03 10:56:23;;;;;;;7.33;6.60;;;23.70;1.00;23.00;100981.00;;;;4882205;29;20464;-81